Detailed System and Site Information

System Data Health
Measure Timestamp Ago Health
Web Server Live 06:08:21, 25th May 2015 0 s health
Last live-data upload from local system (nw3) 06:08:18, 25th May 2015 3 s health
Last upload of secondary data 06:00:30, 25th May 2015 8 mins health
Latest Webcam upload 06:08:09, 25th May 2015 12 s health
Last upload of 24hr data log 06:04:07, 25th May 2015 4 mins health
Last full data process 06:05:01, 25th May 2015 3 mins health
Last data downtime (>15 mins) 11:16:01, 23rd March 2015 63 days
Local System and Site Information
Measure Value
WD Version & Build # 10.37R - 40
WD Start Time 08:13 28/04/15
WD Data Count 809372
WD Memory Use 70,076 K
--- ---
Windows Uptime 26 Days 21 Hours 47 Minutes 54 Seconds
Free System Memory 2491 MB (Max: 4GB)
--- ---
Station Altitude 57 m (187 ft)
Station Latitude 51.556
Station Longitude -0.154
Machine Room Conditions
Measure Value
Temperature 20.1 °C
Temperature Trend -0.1 °C /hr
Relative Humidity 39%
Dew Point 5.7 °C
--- ---
Tmin Today 20.1 °C at 05:45
Tmax Today 26.8 °C at 00:47
Hmin Today 39% at 04:55
Hmax Today 50% at 00:47
Tmin Yesterday 20.0 °C at 06:19
Tmax Yesterday 21.2 °C at 19:03

Site owner and administrator: Ben Lee-Rodgers (2010 - present)

Last 10hrs Temp/Hum for Secondary Sensor and Indoors

Extra Sensors/Indoor

Other

Raw METAR from EGLL (Heathrow)

EGLL 250450Z 31003KT CAVOK 10/04 Q1019
Decode Instructions
Source

WD Screenshot

not available